sensor_id;sensor_type;location;lat;lon;timestamp;pressure;altitude;pressure_sealevel;temperature;humidity
36190;BME280;22232;50.914;13.858;2022-07-17T00:00:42;98734.22;;;12.38;77.81
36190;BME280;22232;50.914;13.858;2022-07-17T00:03:15;98729.69;;;12.39;77.78
36190;BME280;22232;50.914;13.858;2022-07-17T00:05:44;98737.94;;;12.37;78.27
36190;BME280;22232;50.914;13.858;2022-07-17T00:08:12;98731.16;;;12.35;78.20
36190;BME280;22232;50.914;13.858;2022-07-17T00:10:42;98736.94;;;12.32;78.83
36190;BME280;22232;50.914;13.858;2022-07-17T00:13:10;98738.00;;;12.31;79.20
36190;BME280;22232;50.914;13.858;2022-07-17T00:15:38;98733.47;;;12.31;79.11
36190;BME280;22232;50.914;13.858;2022-07-17T00:18:06;98736.38;;;12.30;78.85
36190;BME280;22232;50.914;13.858;2022-07-17T00:20:36;98735.75;;;12.28;79.32
36190;BME280;22232;50.914;13.858;2022-07-17T00:23:04;98740.50;;;12.26;80.28
36190;BME280;22232;50.914;13.858;2022-07-17T00:25:32;98740.72;;;12.24;80.11
36190;BME280;22232;50.914;13.858;2022-07-17T00:28:01;98749.19;;;12.21;81.35
36190;BME280;22232;50.914;13.858;2022-07-17T00:30:29;98736.25;;;12.18;81.40
36190;BME280;22232;50.914;13.858;2022-07-17T00:32:56;98741.59;;;12.18;81.72
36190;BME280;22232;50.914;13.858;2022-07-17T00:35:24;98739.13;;;12.16;81.57
36190;BME280;22232;50.914;13.858;2022-07-17T00:37:52;98736.69;;;12.15;81.88
36190;BME280;22232;50.914;13.858;2022-07-17T00:40:22;98727.84;;;12.14;82.49
36190;BME280;22232;50.914;13.858;2022-07-17T00:42:51;98734.22;;;12.13;82.58
36190;BME280;22232;50.914;13.858;2022-07-17T00:45:18;98738.38;;;12.09;83.14
36190;BME280;22232;50.914;13.858;2022-07-17T00:50:30;98743.34;;;12.06;84.20
36190;BME280;22232;50.914;13.858;2022-07-17T00:52:59;98742.34;;;12.00;84.69
36190;BME280;22232;50.914;13.858;2022-07-17T00:55:27;98751.63;;;11.98;85.19
36190;BME280;22232;50.914;13.858;2022-07-17T00:58:10;98750.19;;;11.95;85.51
36190;BME280;22232;50.914;13.858;2022-07-17T01:00:38;98743.41;;;11.92;86.44
36190;BME280;22232;50.914;13.858;2022-07-17T01:03:08;98746.53;;;11.89;87.35
36190;BME280;22232;50.914;13.858;2022-07-17T01:05:37;98744.28;;;11.86;87.83
36190;BME280;22232;50.914;13.858;2022-07-17T01:08:05;98736.91;;;11.82;88.20
36190;BME280;22232;50.914;13.858;2022-07-17T01:10:32;98745.97;;;11.81;88.62
36190;BME280;22232;50.914;13.858;2022-07-17T01:13:00;98747.63;;;11.75;89.75
36190;BME280;22232;50.914;13.858;2022-07-17T01:15:29;98750.06;;;11.77;89.61
36190;BME280;22232;50.914;13.858;2022-07-17T01:17:58;98754.22;;;11.73;90.22
36190;BME280;22232;50.914;13.858;2022-07-17T01:20:26;98751.16;;;11.69;91.10
36190;BME280;22232;50.914;13.858;2022-07-17T01:22:54;98754.41;;;11.71;91.67
36190;BME280;22232;50.914;13.858;2022-07-17T01:25:22;98758.56;;;11.67;92.18
36190;BME280;22232;50.914;13.858;2022-07-17T01:27:51;98758.75;;;11.65;92.77
36190;BME280;22232;50.914;13.858;2022-07-17T01:30:19;98753.41;;;11.65;93.55
36190;BME280;22232;50.914;13.858;2022-07-17T01:32:46;98755.50;;;11.63;94.17
36190;BME280;22232;50.914;13.858;2022-07-17T01:35:16;98761.28;;;11.60;94.49
36190;BME280;22232;50.914;13.858;2022-07-17T01:37:44;98763.72;;;11.62;94.67
36190;BME280;22232;50.914;13.858;2022-07-17T01:40:13;98766.25;;;11.57;95.05
36190;BME280;22232;50.914;13.858;2022-07-17T01:42:46;98764.19;;;11.52;96.36
36190;BME280;22232;50.914;13.858;2022-07-17T01:45:17;98761.53;;;11.52;96.03
36190;BME280;22232;50.914;13.858;2022-07-17T01:47:45;98761.13;;;11.48;96.75
36190;BME280;22232;50.914;13.858;2022-07-17T01:50:14;98764.00;;;11.47;97.29
36190;BME280;22232;50.914;13.858;2022-07-17T01:52:43;98757.03;;;11.46;97.00
36190;BME280;22232;50.914;13.858;2022-07-17T01:55:14;98757.03;;;11.46;97.55
36190;BME280;22232;50.914;13.858;2022-07-17T01:57:42;98748.19;;;11.45;97.41
36190;BME280;22232;50.914;13.858;2022-07-17T02:00:14;98750.25;;;11.43;97.95
36190;BME280;22232;50.914;13.858;2022-07-17T02:02:44;98757.06;;;11.39;98.87
36190;BME280;22232;50.914;13.858;2022-07-17T02:05:13;98752.53;;;11.40;99.08
36190;BME280;22232;50.914;13.858;2022-07-17T02:07:40;98759.94;;;11.38;100.00
36190;BME280;22232;50.914;13.858;2022-07-17T02:10:09;98754.00;;;11.36;99.67
36190;BME280;22232;50.914;13.858;2022-07-17T02:12:38;98751.75;;;11.33;100.00
36190;BME280;22232;50.914;13.858;2022-07-17T02:15:06;98751.75;;;11.33;100.00
36190;BME280;22232;50.914;13.858;2022-07-17T02:17:38;98753.81;;;11.31;100.00
36190;BME280;22232;50.914;13.858;2022-07-17T02:20:06;98750.53;;;11.29;100.00
36190;BME280;22232;50.914;13.858;2022-07-17T02:22:35;98754.47;;;11.26;100.00
36190;BME280;22232;50.914;13.858;2022-07-17T02:25:06;98760.81;;;11.25;100.00
36190;BME280;22232;50.914;13.858;2022-07-17T02:27:34;98760.84;;;11.18;100.00
36190;BME280;22232;50.914;13.858;2022-07-17T02:30:07;98760.06;;;11.11;100.00
36190;BME280;22232;50.914;13.858;2022-07-17T02:32:35;98761.28;;;11.09;100.00
36190;BME280;22232;50.914;13.858;2022-07-17T02:35:03;98765.81;;;11.08;100.00
36190;BME280;22232;50.914;13.858;2022-07-17T02:37:31;98757.41;;;10.98;100.00
36190;BME280;22232;50.914;13.858;2022-07-17T02:39:59;98761.13;;;10.90;100.00
36190;BME280;22232;50.914;13.858;2022-07-17T02:42:28;98765.03;;;10.88;100.00
36190;BME280;22232;50.914;13.858;2022-07-17T02:44:58;98769.38;;;10.82;100.00
36190;BME280;22232;50.914;13.858;2022-07-17T02:47:28;98769.38;;;10.75;100.00
36190;BME280;22232;50.914;13.858;2022-07-17T02:49:57;98770.00;;;10.71;100.00
36190;BME280;22232;50.914;13.858;2022-07-17T02:52:25;98770.84;;;10.71;100.00
36190;BME280;22232;50.914;13.858;2022-07-17T02:54:53;98772.88;;;10.69;100.00
36190;BME280;22232;50.914;13.858;2022-07-17T02:57:20;98762.22;;;10.69;100.00
36190;BME280;22232;50.914;13.858;2022-07-17T02:59:48;98767.97;;;10.66;100.00
36190;BME280;22232;50.914;13.858;2022-07-17T03:02:15;98755.66;;;10.65;100.00
36190;BME280;22232;50.914;13.858;2022-07-17T03:04:43;98765.72;;;10.63;100.00
36190;BME280;22232;50.914;13.858;2022-07-17T03:07:11;98763.03;;;10.63;100.00
36190;BME280;22232;50.914;13.858;2022-07-17T03:09:38;98761.00;;;10.65;100.00
36190;BME280;22232;50.914;13.858;2022-07-17T03:12:06;98764.06;;;10.62;100.00
36190;BME280;22232;50.914;13.858;2022-07-17T03:14:34;98764.25;;;10.67;100.00
36190;BME280;22232;50.914;13.858;2022-07-17T03:17:01;98758.47;;;10.77;100.00
36190;BME280;22232;50.914;13.858;2022-07-17T03:19:29;98758.22;;;10.98;100.00
36190;BME280;22232;50.914;13.858;2022-07-17T03:21:57;98767.38;;;11.29;100.00
36190;BME280;22232;50.914;13.858;2022-07-17T03:24:25;98765.97;;;11.65;100.00
36190;BME280;22232;50.914;13.858;2022-07-17T03:26:53;98763.69;;;12.07;99.52
36190;BME280;22232;50.914;13.858;2022-07-17T03:29:21;98755.44;;;12.58;93.71
36190;BME280;22232;50.914;13.858;2022-07-17T03:31:48;98761.66;;;13.14;85.94
36190;BME280;22232;50.914;13.858;2022-07-17T03:34:16;98755.19;;;13.59;80.89
36190;BME280;22232;50.914;13.858;2022-07-17T03:36:44;98764.56;;;14.10;76.16
36190;BME280;22232;50.914;13.858;2022-07-17T03:39:12;98762.41;;;14.54;71.84
36190;BME280;22232;50.914;13.858;2022-07-17T03:41:40;98769.88;;;14.99;68.15
36190;BME280;22232;50.914;13.858;2022-07-17T03:44:07;98768.31;;;15.26;66.39
36190;BME280;22232;50.914;13.858;2022-07-17T03:46:35;98764.34;;;15.69;63.59
36190;BME280;22232;50.914;13.858;2022-07-17T03:49:02;98765.31;;;16.09;62.15
36190;BME280;22232;50.914;13.858;2022-07-17T03:51:30;98770.50;;;16.44;59.28
36190;BME280;22232;50.914;13.858;2022-07-17T03:53:58;98780.47;;;16.77;57.70
36190;BME280;22232;50.914;13.858;2022-07-17T03:56:26;98769.84;;;17.09;55.64
36190;BME280;22232;50.914;13.858;2022-07-17T03:58:54;98765.22;;;17.49;55.04
36190;BME280;22232;50.914;13.858;2022-07-17T04:01:21;98765.94;;;17.88;54.15
36190;BME280;22232;50.914;13.858;2022-07-17T04:03:49;98768.88;;;18.14;52.38
36190;BME280;22232;50.914;13.858;2022-07-17T04:06:17;98768.66;;;18.52;51.50
36190;BME280;22232;50.914;13.858;2022-07-17T04:08:44;98778.69;;;18.89;50.08
36190;BME280;22232;50.914;13.858;2022-07-17T04:11:12;98782.31;;;19.05;49.56
36190;BME280;22232;50.914;13.858;2022-07-17T04:13:39;98778.97;;;19.45;48.47
36190;BME280;22232;50.914;13.858;2022-07-17T04:16:07;98775.06;;;19.79;48.06
36190;BME280;22232;50.914;13.858;2022-07-17T04:18:36;98781.34;;;20.10;46.54
36190;BME280;22232;50.914;13.858;2022-07-17T04:21:05;98782.19;;;20.31;46.93
36190;BME280;22232;50.914;13.858;2022-07-17T04:23:34;98786.25;;;20.44;45.75
36190;BME280;22232;50.914;13.858;2022-07-17T04:26:02;98777.56;;;20.21;46.10
36190;BME280;22232;50.914;13.858;2022-07-17T04:28:38;98790.59;;;20.70;45.29
36190;BME280;22232;50.914;13.858;2022-07-17T04:31:06;98789.50;;;20.76;45.40
36190;BME280;22232;50.914;13.858;2022-07-17T04:33:34;98786.69;;;21.27;44.44
36190;BME280;22232;50.914;13.858;2022-07-17T04:36:02;98792.84;;;21.48;43.62
36190;BME280;22232;50.914;13.858;2022-07-17T04:38:30;98792.84;;;21.53;44.02
36190;BME280;22232;50.914;13.858;2022-07-17T04:40:58;98792.94;;;21.88;43.07
36190;BME280;22232;50.914;13.858;2022-07-17T04:43:25;98785.41;;;21.74;43.54
36190;BME280;22232;50.914;13.858;2022-07-17T04:45:53;98781.38;;;22.11;42.88
36190;BME280;22232;50.914;13.858;2022-07-17T04:48:21;98796.22;;;22.34;41.95
36190;BME280;22232;50.914;13.858;2022-07-17T04:50:48;98785.13;;;22.26;41.79
36190;BME280;22232;50.914;13.858;2022-07-17T04:53:16;98793.50;;;22.63;41.91
36190;BME280;22232;50.914;13.858;2022-07-17T04:55:50;98791.19;;;22.81;41.20
36190;BME280;22232;50.914;13.858;2022-07-17T04:58:17;98794.28;;;22.69;41.26
36190;BME280;22232;50.914;13.858;2022-07-17T05:00:46;98796.13;;;23.08;40.74
36190;BME280;22232;50.914;13.858;2022-07-17T05:03:14;98787.53;;;22.96;41.09
36190;BME280;22232;50.914;13.858;2022-07-17T05:05:42;98793.28;;;23.18;40.79
36190;BME280;22232;50.914;13.858;2022-07-17T05:08:09;98794.47;;;23.31;40.42
36190;BME280;22232;50.914;13.858;2022-07-17T05:10:37;98803.47;;;23.55;39.85
36190;BME280;22232;50.914;13.858;2022-07-17T05:13:05;98803.31;;;23.71;39.72
36190;BME280;22232;50.914;13.858;2022-07-17T05:15:33;98798.69;;;23.90;39.28
36190;BME280;22232;50.914;13.858;2022-07-17T05:18:07;98799.19;;;24.30;38.82
36190;BME280;22232;50.914;13.858;2022-07-17T05:20:35;98807.66;;;23.72;39.11
36190;BME280;22232;50.914;13.858;2022-07-17T05:23:02;98804.78;;;23.82;38.98
36190;BME280;22232;50.914;13.858;2022-07-17T05:25:30;98800.53;;;24.14;39.15
36190;BME280;22232;50.914;13.858;2022-07-17T05:27:58;98803.75;;;24.35;38.61
36190;BME280;22232;50.914;13.858;2022-07-17T05:30:26;98808.38;;;24.34;38.44
36190;BME280;22232;50.914;13.858;2022-07-17T05:32:53;98814.72;;;24.30;38.83
36190;BME280;22232;50.914;13.858;2022-07-17T05:35:21;98814.41;;;24.69;38.27
36190;BME280;22232;50.914;13.858;2022-07-17T05:37:49;98819.06;;;24.49;38.38
36190;BME280;22232;50.914;13.858;2022-07-17T05:40:17;98816.53;;;24.72;38.25
36190;BME280;22232;50.914;13.858;2022-07-17T05:42:45;98816.69;;;24.62;37.91
36190;BME280;22232;50.914;13.858;2022-07-17T05:45:12;98817.16;;;24.83;38.32
36190;BME280;22232;50.914;13.858;2022-07-17T05:47:40;98809.78;;;24.83;37.96
36190;BME280;22232;50.914;13.858;2022-07-17T05:50:07;98820.88;;;24.73;38.35
36190;BME280;22232;50.914;13.858;2022-07-17T05:52:35;98822.78;;;25.05;37.06
36190;BME280;22232;50.914;13.858;2022-07-17T05:55:03;98819.00;;;24.55;38.08
36190;BME280;22232;50.914;13.858;2022-07-17T05:57:30;98822.09;;;24.48;38.54
36190;BME280;22232;50.914;13.858;2022-07-17T05:59:58;98830.44;;;24.57;38.08
36190;BME280;22232;50.914;13.858;2022-07-17T06:02:26;98830.19;;;24.86;38.51
36190;BME280;22232;50.914;13.858;2022-07-17T06:04:53;98837.38;;;25.14;37.28
36190;BME280;22232;50.914;13.858;2022-07-17T06:07:21;98836.03;;;25.12;37.35
36190;BME280;22232;50.914;13.858;2022-07-17T06:09:48;98842.56;;;25.30;37.09
36190;BME280;22232;50.914;13.858;2022-07-17T06:12:16;98844.69;;;25.33;37.02
36190;BME280;22232;50.914;13.858;2022-07-17T06:14:43;98848.41;;;25.37;36.55
36190;BME280;22232;50.914;13.858;2022-07-17T06:17:11;98844.69;;;24.86;36.86
36190;BME280;22232;50.914;13.858;2022-07-17T06:19:39;98845.41;;;25.06;37.70
36190;BME280;22232;50.914;13.858;2022-07-17T06:22:07;98841.91;;;25.19;37.42
36190;BME280;22232;50.914;13.858;2022-07-17T06:24:34;98849.09;;;25.29;37.14
36190;BME280;22232;50.914;13.858;2022-07-17T06:27:02;98841.81;;;24.78;37.53
36190;BME280;22232;50.914;13.858;2022-07-17T06:29:30;98845.28;;;25.44;36.82
36190;BME280;22232;50.914;13.858;2022-07-17T06:31:57;98844.88;;;25.36;36.44
36190;BME280;22232;50.914;13.858;2022-07-17T06:34:25;98843.47;;;25.67;37.45
36190;BME280;22232;50.914;13.858;2022-07-17T06:36:52;98850.13;;;25.33;37.22
36190;BME280;22232;50.914;13.858;2022-07-17T06:39:20;98839.13;;;25.52;37.66
36190;BME280;22232;50.914;13.858;2022-07-17T06:41:47;98843.97;;;25.27;37.69
36190;BME280;22232;50.914;13.858;2022-07-17T06:44:15;98837.69;;;25.54;37.74
36190;BME280;22232;50.914;13.858;2022-07-17T06:46:42;98838.59;;;25.63;36.97
36190;BME280;22232;50.914;13.858;2022-07-17T06:49:10;98844.72;;;24.11;38.15
36190;BME280;22232;50.914;13.858;2022-07-17T06:51:38;98851.56;;;23.89;39.52
36190;BME280;22232;50.914;13.858;2022-07-17T06:54:06;98851.81;;;23.16;39.93
36190;BME280;22232;50.914;13.858;2022-07-17T06:56:33;98850.78;;;22.77;40.59
36190;BME280;22232;50.914;13.858;2022-07-17T06:59:01;98850.22;;;23.39;41.54
36190;BME280;22232;50.914;13.858;2022-07-17T07:01:30;98855.06;;;23.71;39.74
36190;BME280;22232;50.914;13.858;2022-07-17T07:04:05;98853.06;;;24.38;39.31
36190;BME280;22232;50.914;13.858;2022-07-17T07:06:32;98857.44;;;24.34;38.47
36190;BME280;22232;50.914;13.858;2022-07-17T07:09:00;98867.31;;;23.15;41.21
36190;BME280;22232;50.914;13.858;2022-07-17T07:11:28;98861.59;;;21.98;42.54
36190;BME280;22232;50.914;13.858;2022-07-17T07:13:56;98858.59;;;22.84;42.47
36190;BME280;22232;50.914;13.858;2022-07-17T07:16:23;98859.56;;;22.64;41.28
36190;BME280;22232;50.914;13.858;2022-07-17T07:18:51;98865.84;;;21.60;44.04
36190;BME280;22232;50.914;13.858;2022-07-17T07:21:19;98866.66;;;22.65;43.32
36190;BME280;22232;50.914;13.858;2022-07-17T07:23:46;98856.53;;;23.82;41.15
36190;BME280;22232;50.914;13.858;2022-07-17T07:26:14;98849.41;;;24.62;39.73
36190;BME280;22232;50.914;13.858;2022-07-17T07:28:42;98854.44;;;24.36;39.07
36190;BME280;22232;50.914;13.858;2022-07-17T07:31:10;98858.63;;;24.09;39.57
36190;BME280;22232;50.914;13.858;2022-07-17T07:33:38;98860.84;;;22.77;40.42
36190;BME280;22232;50.914;13.858;2022-07-17T07:36:06;98854.28;;;22.83;42.36
36190;BME280;22232;50.914;13.858;2022-07-17T07:38:33;98863.63;;;22.27;42.03
36190;BME280;22232;50.914;13.858;2022-07-17T07:41:01;98865.56;;;22.21;43.15
36190;BME280;22232;50.914;13.858;2022-07-17T07:43:29;98862.13;;;22.84;42.36
36190;BME280;22232;50.914;13.858;2022-07-17T07:45:57;98869.66;;;22.63;42.26
36190;BME280;22232;50.914;13.858;2022-07-17T07:48:26;98872.34;;;23.32;41.59
36190;BME280;22232;50.914;13.858;2022-07-17T07:50:53;98864.94;;;23.86;41.44
36190;BME280;22232;50.914;13.858;2022-07-17T07:53:21;98871.78;;;24.26;39.50
36190;BME280;22232;50.914;13.858;2022-07-17T07:55:49;98863.53;;;23.64;39.40
36190;BME280;22232;50.914;13.858;2022-07-17T07:58:17;98861.13;;;23.63;40.55
36190;BME280;22232;50.914;13.858;2022-07-17T08:00:46;98861.22;;;23.76;41.15
36190;BME280;22232;50.914;13.858;2022-07-17T08:03:14;98859.31;;;24.39;39.35
36190;BME280;22232;50.914;13.858;2022-07-17T08:05:42;98857.34;;;24.44;38.84
36190;BME280;22232;50.914;13.858;2022-07-17T08:08:10;98860.44;;;23.76;40.42
36190;BME280;22232;50.914;13.858;2022-07-17T08:10:37;98857.53;;;24.10;40.04
36190;BME280;22232;50.914;13.858;2022-07-17T08:13:05;98869.84;;;24.26;39.39
36190;BME280;22232;50.914;13.858;2022-07-17T08:15:32;98865.97;;;23.66;39.92
36190;BME280;22232;50.914;13.858;2022-07-17T08:18:00;98871.88;;;22.17;41.78
36190;BME280;22232;50.914;13.858;2022-07-17T08:20:27;98875.63;;;21.56;43.85
36190;BME280;22232;50.914;13.858;2022-07-17T08:22:55;98870.94;;;21.82;44.16
36190;BME280;22232;50.914;13.858;2022-07-17T08:25:33;98864.75;;;22.21;43.56
36190;BME280;22232;50.914;13.858;2022-07-17T08:28:05;98864.66;;;21.87;43.49
36190;BME280;22232;50.914;13.858;2022-07-17T08:30:33;98875.09;;;21.54;44.00
36190;BME280;22232;50.914;13.858;2022-07-17T08:33:03;98862.66;;;21.43;44.94
36190;BME280;22232;50.914;13.858;2022-07-17T08:35:32;98865.19;;;21.89;43.64
36190;BME280;22232;50.914;13.858;2022-07-17T08:38:00;98860.31;;;21.86;43.26
36190;BME280;22232;50.914;13.858;2022-07-17T08:40:31;98860.03;;;21.87;42.71
36190;BME280;22232;50.914;13.858;2022-07-17T08:43:00;98860.09;;;21.77;42.95
36190;BME280;22232;50.914;13.858;2022-07-17T08:45:28;98870.88;;;21.87;43.38
36190;BME280;22232;50.914;13.858;2022-07-17T08:47:56;98871.19;;;21.75;44.22
36190;BME280;22232;50.914;13.858;2022-07-17T08:50:26;98860.41;;;22.94;43.09
36190;BME280;22232;50.914;13.858;2022-07-17T08:52:55;98857.97;;;23.98;39.78
36190;BME280;22232;50.914;13.858;2022-07-17T08:55:22;98852.72;;;24.78;38.92
36190;BME280;22232;50.914;13.858;2022-07-17T08:57:50;98861.88;;;25.47;37.58
36190;BME280;22232;50.914;13.858;2022-07-17T09:00:20;98865.31;;;23.26;39.45
36190;BME280;22232;50.914;13.858;2022-07-17T09:02:59;98864.06;;;22.84;40.55
36190;BME280;22232;50.914;13.858;2022-07-17T09:05:38;98876.06;;;22.78;40.84
36190;BME280;22232;50.914;13.858;2022-07-17T09:08:08;98869.41;;;23.76;40.58
36190;BME280;22232;50.914;13.858;2022-07-17T09:10:42;98852.75;;;24.59;39.15
36190;BME280;22232;50.914;13.858;2022-07-17T09:13:30;98851.16;;;24.90;38.60
36190;BME280;22232;50.914;13.858;2022-07-17T09:16:07;98861.66;;;24.08;37.56
36190;BME280;22232;50.914;13.858;2022-07-17T09:18:51;98847.50;;;23.63;38.77
36190;BME280;22232;50.914;13.858;2022-07-17T09:21:24;98854.88;;;24.05;39.41
36190;BME280;22232;50.914;13.858;2022-07-17T09:23:59;98854.09;;;24.42;38.82
36190;BME280;22232;50.914;13.858;2022-07-17T09:26:27;98849.53;;;24.89;37.12
36190;BME280;22232;50.914;13.858;2022-07-17T09:28:56;98853.44;;;24.51;37.63
36190;BME280;22232;50.914;13.858;2022-07-17T09:31:29;98853.69;;;25.01;37.99
36190;BME280;22232;50.914;13.858;2022-07-17T09:33:58;98844.78;;;25.69;36.88
36190;BME280;22232;50.914;13.858;2022-07-17T09:36:26;98850.19;;;26.47;35.62
36190;BME280;22232;50.914;13.858;2022-07-17T09:38:56;98850.56;;;26.99;34.72
36190;BME280;22232;50.914;13.858;2022-07-17T09:41:25;98845.16;;;27.30;34.51
36190;BME280;22232;50.914;13.858;2022-07-17T09:44:00;98845.88;;;27.53;33.48
36190;BME280;22232;50.914;13.858;2022-07-17T09:46:33;98859.75;;;25.72;35.38
36190;BME280;22232;50.914;13.858;2022-07-17T09:49:04;98858.88;;;24.32;36.64
36190;BME280;22232;50.914;13.858;2022-07-17T09:51:37;98857.72;;;23.95;38.21
36190;BME280;22232;50.914;13.858;2022-07-17T09:54:08;98839.09;;;24.59;38.04
36190;BME280;22232;50.914;13.858;2022-07-17T09:56:37;98844.97;;;24.85;37.59
36190;BME280;22232;50.914;13.858;2022-07-17T09:59:11;98846.72;;;24.43;36.83
36190;BME280;22232;50.914;13.858;2022-07-17T10:01:41;98844.41;;;24.31;37.95
36190;BME280;22232;50.914;13.858;2022-07-17T10:04:12;98843.44;;;23.60;37.96
36190;BME280;22232;50.914;13.858;2022-07-17T10:06:40;98858.50;;;24.38;37.44
36190;BME280;22232;50.914;13.858;2022-07-17T10:09:09;98845.59;;;24.95;36.45
36190;BME280;22232;50.914;13.858;2022-07-17T10:11:38;98843.06;;;25.73;35.80
36190;BME280;22232;50.914;13.858;2022-07-17T10:14:15;98849.22;;;26.06;34.66
36190;BME280;22232;50.914;13.858;2022-07-17T10:16:44;98843.03;;;26.73;33.88
36190;BME280;22232;50.914;13.858;2022-07-17T10:21:55;98850.72;;;26.71;33.57
36190;BME280;22232;50.914;13.858;2022-07-17T10:24:26;98848.25;;;26.47;33.41
36190;BME280;22232;50.914;13.858;2022-07-17T10:26:55;98845.09;;;24.23;36.05
36190;BME280;22232;50.914;13.858;2022-07-17T10:29:35;98856.88;;;24.89;36.04
36190;BME280;22232;50.914;13.858;2022-07-17T10:32:16;98852.94;;;24.81;36.33
36190;BME280;22232;50.914;13.858;2022-07-17T10:34:53;98842.22;;;23.95;37.00
36190;BME280;22232;50.914;13.858;2022-07-17T10:40:30;98840.03;;;24.68;37.19
36190;BME280;22232;50.914;13.858;2022-07-17T10:43:03;98830.09;;;25.79;35.82
36190;BME280;22232;50.914;13.858;2022-07-17T10:45:38;98824.66;;;26.74;34.55
36190;BME280;22232;50.914;13.858;2022-07-17T10:50:43;98833.50;;;27.02;33.66
36190;BME280;22232;50.914;13.858;2022-07-17T10:53:24;98831.78;;;27.06;32.50
36190;BME280;22232;50.914;13.858;2022-07-17T10:55:56;98838.75;;;26.90;34.05
36190;BME280;22232;50.914;13.858;2022-07-17T10:58:27;98832.41;;;27.03;33.44
36190;BME280;22232;50.914;13.858;2022-07-17T11:01:08;98842.88;;;27.01;33.27
36190;BME280;22232;50.914;13.858;2022-07-17T11:03:43;98840.25;;;25.04;35.03
36190;BME280;22232;50.914;13.858;2022-07-17T11:09:04;98843.19;;;25.82;35.25
36190;BME280;22232;50.914;13.858;2022-07-17T11:11:43;98839.13;;;25.66;33.54
36190;BME280;22232;50.914;13.858;2022-07-17T11:14:25;98842.44;;;25.76;34.61
36190;BME280;22232;50.914;13.858;2022-07-17T11:16:55;98844.16;;;25.31;34.75
36190;BME280;22232;50.914;13.858;2022-07-17T11:19:37;98849.88;;;25.02;35.74
36190;BME280;22232;50.914;13.858;2022-07-17T11:22:07;98833.44;;;24.55;34.88
36190;BME280;22232;50.914;13.858;2022-07-17T11:24:43;98837.75;;;24.75;35.34
36190;BME280;22232;50.914;13.858;2022-07-17T11:27:21;98841.22;;;24.81;34.63
36190;BME280;22232;50.914;13.858;2022-07-17T11:29:51;98837.75;;;24.75;34.95
36190;BME280;22232;50.914;13.858;2022-07-17T11:32:19;98842.72;;;23.97;34.77
36190;BME280;22232;50.914;13.858;2022-07-17T11:34:47;98837.72;;;23.62;35.72
36190;BME280;22232;50.914;13.858;2022-07-17T11:37:15;98841.97;;;23.92;36.11
36190;BME280;22232;50.914;13.858;2022-07-17T11:39:45;98835.06;;;23.99;36.33
36190;BME280;22232;50.914;13.858;2022-07-17T11:42:19;98836.09;;;24.03;35.96
36190;BME280;22232;50.914;13.858;2022-07-17T11:44:50;98828.78;;;24.75;35.10
36190;BME280;22232;50.914;13.858;2022-07-17T11:47:26;98829.03;;;24.21;34.03
36190;BME280;22232;50.914;13.858;2022-07-17T11:50:23;98828.13;;;23.88;35.91
36190;BME280;22232;50.914;13.858;2022-07-17T11:52:51;98837.19;;;23.59;35.46
36190;BME280;22232;50.914;13.858;2022-07-17T11:55:18;98824.22;;;24.13;35.42
36190;BME280;22232;50.914;13.858;2022-07-17T11:57:47;98831.41;;;24.47;35.19
36190;BME280;22232;50.914;13.858;2022-07-17T12:00:18;98829.75;;;23.89;35.18
36190;BME280;22232;50.914;13.858;2022-07-17T12:02:46;98837.25;;;22.33;36.51
36190;BME280;22232;50.914;13.858;2022-07-17T12:05:26;98826.94;;;22.30;36.72
36190;BME280;22232;50.914;13.858;2022-07-17T12:07:55;98821.69;;;21.94;37.40
36190;BME280;22232;50.914;13.858;2022-07-17T12:10:25;98816.19;;;22.83;36.58
36190;BME280;22232;50.914;13.858;2022-07-17T12:13:05;98808.72;;;24.14;35.72
36190;BME280;22232;50.914;13.858;2022-07-17T12:15:44;98813.91;;;25.13;34.66
36190;BME280;22232;50.914;13.858;2022-07-17T12:20:52;98814.75;;;24.81;32.60
36190;BME280;22232;50.914;13.858;2022-07-17T12:23:56;98811.28;;;23.86;34.96
36190;BME280;22232;50.914;13.858;2022-07-17T12:26:24;98813.09;;;24.10;35.36
36190;BME280;22232;50.914;13.858;2022-07-17T12:28:53;98815.78;;;24.99;34.03
36190;BME280;22232;50.914;13.858;2022-07-17T12:31:27;98816.34;;;24.82;33.13
36190;BME280;22232;50.914;13.858;2022-07-17T12:33:55;98814.75;;;24.11;34.21
36190;BME280;22232;50.914;13.858;2022-07-17T12:36:23;98808.41;;;24.15;34.37
36190;BME280;22232;50.914;13.858;2022-07-17T12:38:51;98802.03;;;24.58;33.51
36190;BME280;22232;50.914;13.858;2022-07-17T12:41:19;98797.34;;;24.07;34.84
36190;BME280;22232;50.914;13.858;2022-07-17T12:43:47;98791.31;;;24.47;34.27
36190;BME280;22232;50.914;13.858;2022-07-17T12:46:14;98793.16;;;25.12;34.06
36190;BME280;22232;50.914;13.858;2022-07-17T12:48:45;98791.88;;;24.77;33.35
36190;BME280;22232;50.914;13.858;2022-07-17T12:51:13;98802.75;;;23.69;34.22
36190;BME280;22232;50.914;13.858;2022-07-17T12:53:42;98799.28;;;23.39;33.73
36190;BME280;22232;50.914;13.858;2022-07-17T12:56:11;98798.75;;;23.61;34.08
36190;BME280;22232;50.914;13.858;2022-07-17T12:58:39;98800.31;;;23.43;34.11
36190;BME280;22232;50.914;13.858;2022-07-17T13:01:07;98796.50;;;22.96;34.32
36190;BME280;22232;50.914;13.858;2022-07-17T13:03:35;98791.16;;;22.86;34.80
36190;BME280;22232;50.914;13.858;2022-07-17T13:06:03;98797.03;;;22.64;35.51
36190;BME280;22232;50.914;13.858;2022-07-17T13:08:31;98790.25;;;22.96;34.87
36190;BME280;22232;50.914;13.858;2022-07-17T13:10:59;98795.31;;;23.31;34.47
36190;BME280;22232;50.914;13.858;2022-07-17T13:13:28;98783.25;;;22.84;35.15
36190;BME280;22232;50.914;13.858;2022-07-17T13:15:56;98797.22;;;23.07;35.06